createdAt,value
2023-04-06T00:00:37.639Z,99309.69
2023-04-06T00:03:06.183Z,99312.88
2023-04-06T00:05:34.821Z,99308.28
2023-04-06T00:08:03.005Z,99311.28
2023-04-06T00:10:31.681Z,99301.69
2023-04-06T00:13:01.872Z,99307.25
2023-04-06T00:15:30.054Z,99300.94
2023-04-06T00:17:58.479Z,99302.63
2023-04-06T00:20:26.813Z,99302.31
2023-04-06T00:22:55.256Z,99284.56
2023-04-06T00:25:23.421Z,99290.06
2023-04-06T00:27:51.611Z,99285.69
2023-04-06T00:30:21.670Z,99289.81
2023-04-06T00:32:50.686Z,99278.84
2023-04-06T00:35:18.764Z,99285.59
2023-04-06T00:37:49.128Z,99283.19
2023-04-06T00:40:17.830Z,99286.72
2023-04-06T00:42:46.348Z,99280.97
2023-04-06T00:45:14.535Z,99278.56
2023-04-06T00:47:44.467Z,99277.38
2023-04-06T00:50:12.780Z,99274.19
2023-04-06T00:52:41.343Z,99275.59
2023-04-06T00:55:10.611Z,99267.00
2023-04-06T00:57:38.718Z,99264.53
2023-04-06T01:00:08.394Z,99266.19
2023-04-06T01:02:36.797Z,99265.59
2023-04-06T01:05:07.561Z,99261.78
2023-04-06T01:07:35.763Z,99265.06
2023-04-06T01:10:04.058Z,99257.28
2023-04-06T01:12:32.157Z,99249.84
2023-04-06T01:15:00.906Z,99257.97
2023-04-06T01:17:29.766Z,99254.94
2023-04-06T01:19:58.013Z,99255.22
2023-04-06T01:22:28.214Z,99251.25
2023-04-06T01:24:56.596Z,99250.34
2023-04-06T01:27:26.663Z,99246.81
2023-04-06T01:29:54.971Z,99244.84
2023-04-06T01:32:23.563Z,99239.22
2023-04-06T01:34:51.895Z,99246.88
2023-04-06T01:37:20.284Z,99243.69
2023-04-06T01:39:49.715Z,99236.16
2023-04-06T01:42:17.797Z,99234.13
2023-04-06T01:44:46.137Z,99236.84
2023-04-06T01:47:14.444Z,99235.63
2023-04-06T01:49:42.867Z,99247.50
2023-04-06T01:52:11.080Z,99229.38
2023-04-06T01:54:39.147Z,99230.47
2023-04-06T01:57:09.565Z,99240.38
2023-04-06T01:59:37.737Z,99234.81
2023-04-06T02:02:06.167Z,99234.59
2023-04-06T02:04:34.266Z,99244.44
2023-04-06T02:07:02.583Z,99233.44
2023-04-06T02:09:30.660Z,99234.97
2023-04-06T02:11:59.303Z,99226.25
2023-04-06T02:14:30.041Z,99234.16
2023-04-06T02:16:58.138Z,99227.88
2023-04-06T02:19:26.495Z,99231.28
2023-04-06T02:21:54.887Z,99232.66
2023-04-06T02:24:23.150Z,99232.00
2023-04-06T02:26:51.498Z,99226.06
2023-04-06T02:29:19.634Z,99222.78
2023-04-06T02:31:49.295Z,99222.09
2023-04-06T02:34:18.869Z,99219.69
2023-04-06T02:36:47.948Z,99221.28
2023-04-06T02:39:16.810Z,99210.78
2023-04-06T02:41:45.838Z,99215.09
2023-04-06T02:44:14.372Z,99215.56
2023-04-06T02:46:42.596Z,99210.19
2023-04-06T02:49:12.118Z,99214.88
2023-04-06T02:51:40.595Z,99215.03
2023-04-06T02:54:08.763Z,99210.00
2023-04-06T02:56:37.394Z,99210.75
2023-04-06T02:59:05.521Z,99210.59
2023-04-06T03:01:33.576Z,99213.16
2023-04-06T03:04:02.010Z,99213.25
2023-04-06T03:06:31.520Z,99209.16
2023-04-06T03:08:59.910Z,99211.72
2023-04-06T03:11:28.095Z,99208.00
2023-04-06T03:13:56.308Z,99206.34
2023-04-06T03:16:24.531Z,99206.97
2023-04-06T03:18:52.765Z,99208.38
2023-04-06T03:21:21.843Z,99205.06
2023-04-06T03:23:52.350Z,99206.97
2023-04-06T03:26:20.737Z,99199.78
2023-04-06T03:28:48.917Z,99213.69
2023-04-06T03:31:17.339Z,99205.53
2023-04-06T03:33:46.810Z,99211.28
2023-04-06T03:36:14.895Z,99210.25
2023-04-06T03:38:42.948Z,99213.69
2023-04-06T03:41:12.520Z,99205.19
2023-04-06T03:43:40.781Z,99212.91
2023-04-06T03:46:08.853Z,99210.50
2023-04-06T03:48:37.554Z,99216.03
2023-04-06T03:51:08.233Z,99213.47
2023-04-06T03:53:38.075Z,99218.31
2023-04-06T03:56:07.583Z,99214.25
2023-04-06T03:58:37.674Z,99220.69
2023-04-06T04:01:05.933Z,99218.59
2023-04-06T04:03:36.035Z,99222.06
2023-04-06T04:06:04.349Z,99224.78
2023-04-06T04:08:32.437Z,99215.34
2023-04-06T04:11:00.738Z,99222.69
2023-04-06T04:13:28.983Z,99221.97
2023-04-06T04:15:59.846Z,99230.56
2023-04-06T04:18:28.659Z,99224.91
2023-04-06T04:20:57.209Z,99225.63
2023-04-06T04:23:25.319Z,99229.38
2023-04-06T04:25:53.651Z,99230.00
2023-04-06T04:28:21.957Z,99236.84
2023-04-06T04:30:50.115Z,99235.31
2023-04-06T04:33:20.083Z,99232.84
2023-04-06T04:35:48.455Z,99246.19
2023-04-06T04:38:17.120Z,99241.09
2023-04-06T04:40:45.514Z,99234.94
2023-04-06T04:43:13.938Z,99233.19
2023-04-06T04:45:42.258Z,99229.47
2023-04-06T04:48:13.130Z,99229.47
2023-04-06T04:50:42.704Z,99238.75
2023-04-06T04:53:11.227Z,99237.16
2023-04-06T04:55:39.789Z,99239.38
2023-04-06T04:58:07.881Z,99228.56
2023-04-06T05:00:35.955Z,99235.63
2023-04-06T05:03:05.620Z,99238.53
2023-04-06T05:05:35.480Z,99233.59
2023-04-06T05:08:05.800Z,99244.53
2023-04-06T05:10:35.314Z,99250.34
2023-04-06T05:13:03.743Z,99245.56
2023-04-06T05:15:32.214Z,99248.44
2023-04-06T05:18:00.502Z,99256.69
2023-04-06T05:20:29.197Z,99245.34
2023-04-06T05:22:58.073Z,99243.03
2023-04-06T05:25:28.575Z,99246.69
2023-04-06T05:27:57.106Z,99245.47
2023-04-06T05:30:25.871Z,99245.59
2023-04-06T05:32:54.078Z,99243.63
2023-04-06T05:35:22.247Z,99243.84
2023-04-06T05:37:50.627Z,99241.56
2023-04-06T05:40:18.984Z,99238.47
2023-04-06T05:42:48.587Z,99251.78
2023-04-06T05:45:18.015Z,99251.00
2023-04-06T05:47:46.692Z,99251.00
2023-04-06T05:50:16.153Z,99254.56
2023-04-06T05:52:47.470Z,99257.78
2023-04-06T05:55:15.750Z,99254.19
2023-04-06T05:57:43.725Z,99261.94
2023-04-06T06:00:18.565Z,99251.22
2023-04-06T06:02:47.501Z,99253.16
2023-04-06T06:05:15.926Z,99251.38
2023-04-06T06:07:44.191Z,99252.38
2023-04-06T06:10:13.237Z,99256.75
2023-04-06T06:12:41.570Z,99253.75
2023-04-06T06:15:10.494Z,99253.34
2023-04-06T06:17:41.702Z,99248.66
2023-04-06T06:20:10.884Z,99252.19
2023-04-06T06:22:38.991Z,99253.63
2023-04-06T06:25:08.800Z,99254.34
2023-04-06T06:27:36.917Z,99246.84
2023-04-06T06:30:06.087Z,99247.69
2023-04-06T06:32:34.913Z,99248.50
2023-04-06T06:35:04.658Z,99247.00
2023-04-06T06:37:34.428Z,99252.13
2023-04-06T06:40:02.620Z,99252.66
2023-04-06T06:42:30.629Z,99253.00
2023-04-06T06:44:59.863Z,99249.16
2023-04-06T06:47:28.096Z,99253.78
2023-04-06T06:49:56.613Z,99248.41
2023-04-06T06:52:26.620Z,99251.03
2023-04-06T06:54:57.554Z,99255.34
2023-04-06T06:57:26.182Z,99245.34
2023-04-06T06:59:54.412Z,99251.78
2023-04-06T07:02:22.722Z,99246.56
2023-04-06T07:04:51.246Z,99240.03
2023-04-06T07:07:19.348Z,99244.47
2023-04-06T07:09:49.350Z,99243.25
2023-04-06T07:12:17.772Z,99245.69
2023-04-06T07:14:46.221Z,99237.41
2023-04-06T07:17:14.437Z,99241.28
2023-04-06T07:19:43.368Z,99238.16
2023-04-06T07:22:11.458Z,99237.84
2023-04-06T07:24:39.584Z,99241.88
2023-04-06T07:27:09.357Z,99240.50
2023-04-06T07:29:37.768Z,99251.72
2023-04-06T07:32:07.342Z,99244.25
2023-04-06T07:34:35.682Z,99246.41
2023-04-06T07:37:04.497Z,99247.94
2023-04-06T07:39:32.920Z,99241.28
2023-04-06T07:42:01.015Z,99248.72
2023-04-06T07:44:30.728Z,99243.78
2023-04-06T07:46:58.843Z,99248.47
2023-04-06T07:49:27.568Z,99236.88
2023-04-06T07:51:56.314Z,99242.78
2023-04-06T07:54:24.453Z,99244.63
2023-04-06T07:56:52.564Z,99242.84
2023-04-06T07:59:20.857Z,99241.81
2023-04-06T08:01:50.552Z,99250.03
2023-04-06T08:04:19.099Z,99245.88
2023-04-06T08:06:47.338Z,99248.50
2023-04-06T08:09:15.678Z,99254.56
2023-04-06T08:11:45.470Z,99248.94
2023-04-06T08:14:13.884Z,99249.03
2023-04-06T08:16:42.116Z,99244.34
2023-04-06T08:19:12.416Z,99240.81
2023-04-06T08:21:42.142Z,99250.78
2023-04-06T08:24:11.369Z,99249.47
2023-04-06T08:26:39.477Z,99241.47
2023-04-06T08:29:09.826Z,99251.09
2023-04-06T08:31:38.982Z,99250.41
2023-04-06T08:34:09.414Z,99245.13
2023-04-06T08:36:40.619Z,99247.09
2023-04-06T08:39:10.865Z,99260.81
2023-04-06T08:41:39.183Z,99245.50
2023-04-06T08:44:07.733Z,99248.53
2023-04-06T08:46:36.407Z,99243.69
2023-04-06T08:49:07.944Z,99252.41
2023-04-06T08:51:39.326Z,99247.75
2023-04-06T08:54:09.102Z,99245.34
2023-04-06T08:56:41.392Z,99243.56
2023-04-06T08:59:11.889Z,99238.63
2023-04-06T09:01:43.481Z,99246.59
2023-04-06T09:04:13.930Z,99243.50
2023-04-06T09:06:42.773Z,99230.88
2023-04-06T09:09:12.818Z,99234.28
2023-04-06T09:11:47.078Z,99233.53
2023-04-06T09:14:17.994Z,99235.09
2023-04-06T09:16:48.637Z,99236.44
2023-04-06T09:19:17.126Z,99227.72
2023-04-06T09:21:45.646Z,99229.31
2023-04-06T09:24:15.733Z,99226.81
2023-04-06T09:26:49.204Z,99223.63
2023-04-06T09:29:30.921Z,99225.91
2023-04-06T09:32:06.214Z,99225.75
2023-04-06T09:34:35.047Z,99214.00
2023-04-06T09:37:04.038Z,99222.25
2023-04-06T09:39:34.242Z,99219.31
2023-04-06T09:42:03.919Z,99222.41
2023-04-06T09:44:35.334Z,99217.31
2023-04-06T09:47:06.433Z,99220.19
2023-04-06T09:49:36.560Z,99209.25
2023-04-06T09:52:06.647Z,99205.88
2023-04-06T09:54:38.968Z,99208.84
2023-04-06T09:57:25.735Z,99201.47
2023-04-06T10:00:09.324Z,99204.53
2023-04-06T10:02:46.342Z,99205.72
2023-04-06T10:05:22.288Z,99205.97
2023-04-06T10:08:00.424Z,99202.25
2023-04-06T10:10:33.974Z,99192.94
2023-04-06T10:13:02.730Z,99196.50
2023-04-06T10:15:32.097Z,99198.22
2023-04-06T10:18:03.540Z,99191.84
2023-04-06T10:20:39.641Z,99189.75
2023-04-06T10:23:15.354Z,99186.69
2023-04-06T10:25:57.573Z,99183.69
2023-04-06T10:28:26.417Z,99184.38
2023-04-06T10:31:00.040Z,99186.09
2023-04-06T10:33:28.548Z,99193.78
2023-04-06T10:35:57.333Z,99190.03
2023-04-06T10:38:39.649Z,99187.16
2023-04-06T10:41:13.191Z,99183.03
2023-04-06T10:43:48.786Z,99170.28
2023-04-06T10:46:27.901Z,99177.34
2023-04-06T10:48:56.318Z,99183.03
2023-04-06T10:51:28.914Z,99181.97
2023-04-06T10:53:58.167Z,99186.31
2023-04-06T10:56:29.176Z,99173.66
2023-04-06T10:58:58.143Z,99173.19
2023-04-06T11:01:28.695Z,99176.28
2023-04-06T11:04:00.654Z,99167.84
2023-04-06T11:06:32.254Z,99167.13
2023-04-06T11:09:01.419Z,99161.63
2023-04-06T11:11:31.683Z,99158.63
2023-04-06T11:14:01.401Z,99172.44
2023-04-06T11:16:32.209Z,99153.00
2023-04-06T11:19:05.229Z,99154.16
2023-04-06T11:21:40.854Z,99157.50
2023-04-06T11:24:11.248Z,99149.72
2023-04-06T11:26:42.587Z,99154.31
2023-04-06T11:29:11.630Z,99151.09
2023-04-06T11:31:44.197Z,99144.41
2023-04-06T11:34:16.296Z,99136.66
2023-04-06T11:36:48.947Z,99134.59
2023-04-06T11:39:22.056Z,99125.63
2023-04-06T11:41:53.111Z,99117.94
2023-04-06T11:44:32.075Z,99120.09
2023-04-06T11:47:00.938Z,99112.09
2023-04-06T11:49:30.303Z,99100.94
2023-04-06T11:51:58.591Z,99098.41
2023-04-06T11:54:34.325Z,99094.25
2023-04-06T11:57:06.924Z,99092.22
2023-04-06T11:59:35.638Z,99099.53
2023-04-06T12:02:04.664Z,99103.88
2023-04-06T12:04:32.865Z,99107.00
2023-04-06T12:07:02.653Z,99089.84
2023-04-06T12:09:32.153Z,99108.03
2023-04-06T12:12:00.354Z,99096.34
2023-04-06T12:14:31.907Z,99095.22
2023-04-06T12:17:00.427Z,99088.72
2023-04-06T12:19:31.150Z,99089.75
2023-04-06T12:22:06.487Z,99087.91
2023-04-06T12:24:42.155Z,99092.41
2023-04-06T12:27:12.928Z,99083.53
2023-04-06T12:29:45.865Z,99086.72
2023-04-06T12:32:14.457Z,99092.91
2023-04-06T12:34:42.764Z,99090.53
2023-04-06T12:37:14.565Z,99081.69
2023-04-06T12:39:42.673Z,99084.00
2023-04-06T12:42:12.314Z,99082.19
2023-04-06T12:44:46.215Z,99077.53
2023-04-06T12:47:15.118Z,99077.41
2023-04-06T12:49:44.115Z,99080.31
2023-04-06T12:52:14.148Z,99088.81
2023-04-06T12:54:42.729Z,99072.00
2023-04-06T12:57:11.760Z,99086.91
2023-04-06T12:59:41.614Z,99087.03
2023-04-06T13:02:13.343Z,99071.53
2023-04-06T13:04:43.342Z,99072.16
2023-04-06T13:07:11.923Z,99075.28
2023-04-06T13:09:40.588Z,99071.63
2023-04-06T13:12:09.082Z,99068.25
2023-04-06T13:14:37.416Z,99076.00
2023-04-06T13:17:05.986Z,99064.75
2023-04-06T13:19:35.953Z,99066.91
2023-04-06T13:22:04.179Z,99069.09
2023-04-06T13:24:32.429Z,99063.25
2023-04-06T13:27:01.928Z,99061.31
2023-04-06T13:29:30.099Z,99062.69
2023-04-06T13:31:58.255Z,99059.53
2023-04-06T13:34:26.615Z,99054.78
2023-04-06T13:36:56.409Z,99050.63
2023-04-06T13:39:24.666Z,99046.84
2023-04-06T13:41:53.019Z,99058.44
2023-04-06T13:44:21.098Z,99047.34
2023-04-06T13:46:49.471Z,99049.63
2023-04-06T13:49:18.998Z,99059.88
2023-04-06T13:51:51.858Z,99052.06
2023-04-06T13:54:22.549Z,99045.53
2023-04-06T13:56:51.196Z,99048.41
2023-04-06T13:59:19.644Z,99047.22
2023-04-06T14:01:47.899Z,99053.00
2023-04-06T14:04:16.284Z,99043.75
2023-04-06T14:06:46.729Z,99040.94
2023-04-06T14:09:15.119Z,99045.31
2023-04-06T14:11:45.001Z,99042.03
2023-04-06T14:14:13.754Z,99051.38
2023-04-06T14:16:45.201Z,99054.53
2023-04-06T14:19:14.029Z,99040.13
2023-04-06T14:21:44.876Z,99052.09
2023-04-06T14:24:13.712Z,99044.72
2023-04-06T14:26:44.041Z,99032.81
2023-04-06T14:29:13.910Z,99037.25
2023-04-06T14:31:42.417Z,99040.88
2023-04-06T14:34:11.053Z,99035.72
2023-04-06T14:36:39.468Z,99043.06
2023-04-06T14:39:08.471Z,99038.97
2023-04-06T14:41:37.321Z,99037.28
2023-04-06T14:44:06.038Z,99029.69
2023-04-06T14:46:36.212Z,99031.72
2023-04-06T14:49:04.772Z,99040.03
2023-04-06T14:51:37.066Z,99034.38
2023-04-06T14:54:06.204Z,99035.34
2023-04-06T14:56:34.205Z,99040.94
2023-04-06T14:59:03.210Z,99027.25
2023-04-06T15:01:32.587Z,99031.50
2023-04-06T15:04:05.134Z,99034.50
2023-04-06T15:06:33.378Z,99027.91
2023-04-06T15:09:01.709Z,99032.31
2023-04-06T15:11:29.945Z,99027.03
2023-04-06T15:13:58.368Z,99026.94
2023-04-06T15:16:26.811Z,99028.47
2023-04-06T15:18:55.038Z,99027.22
2023-04-06T15:21:24.980Z,99027.69
2023-04-06T15:23:53.218Z,99025.16
2023-04-06T15:26:21.964Z,99027.50
2023-04-06T15:28:50.880Z,99028.22
2023-04-06T15:31:35.875Z,99027.44
2023-04-06T15:34:06.881Z,99024.88
2023-04-06T15:36:36.902Z,99023.91
2023-04-06T15:39:09.646Z,99024.41
2023-04-06T15:41:38.573Z,99024.13
2023-04-06T15:44:07.283Z,99021.81
2023-04-06T15:46:35.479Z,99018.50
2023-04-06T15:49:03.909Z,99018.66
2023-04-06T15:51:33.668Z,99019.00
2023-04-06T15:54:04.040Z,99026.75
2023-04-06T15:56:35.196Z,99017.53
2023-04-06T15:59:04.469Z,99016.59
2023-04-06T16:01:33.185Z,99025.97
2023-04-06T16:04:01.737Z,99019.00
2023-04-06T16:06:30.280Z,99013.28
2023-04-06T16:08:58.862Z,99024.06
2023-04-06T16:11:28.711Z,99020.69
2023-04-06T16:13:57.571Z,99014.50
2023-04-06T16:16:26.282Z,99017.44
2023-04-06T16:18:55.048Z,99015.22
2023-04-06T16:21:23.258Z,99017.69
2023-04-06T16:23:52.042Z,99019.72
2023-04-06T16:26:21.933Z,99010.69
2023-04-06T16:28:51.827Z,99009.19
2023-04-06T16:31:22.181Z,99013.22
2023-04-06T16:33:51.073Z,99011.22
2023-04-06T16:36:24.276Z,99008.09
2023-04-06T16:38:53.216Z,99018.81
2023-04-06T16:41:21.671Z,99017.09
2023-04-06T16:43:54.054Z,99026.59
2023-04-06T16:46:22.308Z,99024.19
2023-04-06T16:48:50.882Z,99017.97
2023-04-06T16:51:19.347Z,99019.06
2023-04-06T16:53:48.392Z,99014.41
2023-04-06T16:56:16.786Z,99025.06
2023-04-06T16:58:45.370Z,99020.94
2023-04-06T17:01:26.900Z,99025.91
2023-04-06T17:03:56.232Z,99021.78
2023-04-06T17:06:25.070Z,99019.69
2023-04-06T17:08:54.182Z,99019.13
2023-04-06T17:11:28.603Z,99018.28
2023-04-06T17:14:04.721Z,99012.69
2023-04-06T17:16:34.555Z,99016.50
2023-04-06T17:19:05.257Z,99017.16
2023-04-06T17:21:33.433Z,99014.59
2023-04-06T17:24:01.746Z,99011.41
2023-04-06T17:26:31.378Z,99012.47
2023-04-06T17:28:59.558Z,99017.44
2023-04-06T17:31:28.268Z,99017.44
2023-04-06T17:33:58.874Z,99025.09
2023-04-06T17:36:29.017Z,99013.53
2023-04-06T17:38:59.528Z,99022.75
2023-04-06T17:41:28.808Z,99020.72
2023-04-06T17:43:58.872Z,99014.78
2023-04-06T17:46:27.356Z,99013.09
2023-04-06T17:48:55.961Z,99017.97
2023-04-06T17:51:27.341Z,99025.06
2023-04-06T17:53:55.497Z,99026.97
2023-04-06T17:56:24.446Z,99026.38
2023-04-06T17:58:56.595Z,99029.00
2023-04-06T18:01:26.363Z,99031.56
2023-04-06T18:03:55.009Z,99038.44
2023-04-06T18:06:25.750Z,99034.34
2023-04-06T18:08:56.038Z,99038.84
2023-04-06T18:11:25.928Z,99035.72
2023-04-06T18:13:54.823Z,99049.41
2023-04-06T18:16:23.736Z,99047.75
2023-04-06T18:18:52.922Z,99054.25
2023-04-06T18:21:21.295Z,99058.50
2023-04-06T18:23:49.639Z,99065.44
2023-04-06T18:26:21.305Z,99063.75
2023-04-06T18:28:49.565Z,99051.53
2023-04-06T18:31:17.995Z,99061.59
2023-04-06T18:33:46.995Z,99066.16
2023-04-06T18:36:15.727Z,99071.56
2023-04-06T18:38:45.618Z,99093.22
2023-04-06T18:41:16.578Z,99096.69
2023-04-06T18:43:46.525Z,99085.44
2023-04-06T18:46:15.971Z,99085.19
2023-04-06T18:48:44.839Z,99094.66
2023-04-06T18:51:13.452Z,99101.88
2023-04-06T18:53:41.829Z,99108.19
2023-04-06T18:56:17.742Z,99101.94
2023-04-06T18:58:48.668Z,99099.88
2023-04-06T19:01:23.530Z,99117.84
2023-04-06T19:03:52.937Z,99107.53
2023-04-06T19:06:21.648Z,99105.19
2023-04-06T19:08:50.318Z,99102.63
2023-04-06T19:11:19.994Z,99112.38
2023-04-06T19:13:50.974Z,99117.47
2023-04-06T19:16:19.664Z,99114.25
2023-04-06T19:18:48.256Z,99099.53
2023-04-06T19:21:18.235Z,99115.09
2023-04-06T19:23:48.798Z,99115.09
2023-04-06T19:26:21.070Z,99113.09
2023-04-06T19:28:52.454Z,99111.47
2023-04-06T19:31:21.684Z,99112.44
2023-04-06T19:33:50.504Z,99110.28
2023-04-06T19:36:18.862Z,99121.28
2023-04-06T19:38:47.259Z,99112.41
2023-04-06T19:41:15.586Z,99124.69
2023-04-06T19:43:44.173Z,99108.47
2023-04-06T19:46:15.748Z,99109.25
2023-04-06T19:48:44.138Z,99119.16
2023-04-06T19:51:13.783Z,99118.16
2023-04-06T19:53:42.552Z,99128.44
2023-04-06T19:56:11.652Z,99117.84
2023-04-06T19:58:40.284Z,99120.97
2023-04-06T20:01:08.401Z,99122.13
2023-04-06T20:03:38.536Z,99124.84
2023-04-06T20:06:07.379Z,99129.75
2023-04-06T20:08:35.467Z,99133.69
2023-04-06T20:11:04.734Z,99134.75
2023-04-06T20:13:32.944Z,99127.63
2023-04-06T20:16:02.094Z,99134.38
2023-04-06T20:18:30.595Z,99142.81
2023-04-06T20:21:00.598Z,99141.97
2023-04-06T20:23:29.283Z,99143.13
2023-04-06T20:25:57.410Z,99145.78
2023-04-06T20:28:25.512Z,99148.81
2023-04-06T20:30:54.207Z,99139.94
2023-04-06T20:33:22.452Z,99139.34
2023-04-06T20:36:00.262Z,99137.84
2023-04-06T20:41:00.645Z,99143.13
2023-04-06T20:43:29.615Z,99150.22
2023-04-06T20:45:58.465Z,99147.41
2023-04-06T20:48:26.899Z,99148.09
2023-04-06T20:50:55.401Z,99149.81
2023-04-06T20:53:25.532Z,99144.19
2023-04-06T20:55:53.634Z,99142.13
2023-04-06T20:58:22.034Z,99144.69
2023-04-06T21:00:50.743Z,99136.28
2023-04-06T21:03:18.919Z,99143.16
2023-04-06T21:05:52.497Z,99143.25
2023-04-06T21:08:20.971Z,99139.59
2023-04-06T21:10:50.534Z,99146.84
2023-04-06T21:13:18.636Z,99142.22
2023-04-06T21:15:46.948Z,99142.72
2023-04-06T21:18:15.389Z,99145.19
2023-04-06T21:20:43.717Z,99135.31
2023-04-06T21:23:12.873Z,99138.38
2023-04-06T21:25:40.977Z,99136.69
2023-04-06T21:28:10.620Z,99133.19
2023-04-06T21:30:39.008Z,99127.84
2023-04-06T21:33:07.799Z,99130.88
2023-04-06T21:35:40.507Z,99126.19
2023-04-06T21:38:08.945Z,99131.09
2023-04-06T21:40:37.427Z,99125.00
2023-04-06T21:43:05.784Z,99125.13
2023-04-06T21:45:35.265Z,99134.47
2023-04-06T21:48:03.768Z,99124.41
2023-04-06T21:50:32.074Z,99130.81
2023-04-06T21:53:00.302Z,99126.28
2023-04-06T21:55:28.697Z,99125.44
2023-04-06T21:57:58.245Z,99128.44
2023-04-06T22:00:26.455Z,99117.72
2023-04-06T22:02:56.469Z,99122.88
2023-04-06T22:05:25.014Z,99127.69
2023-04-06T22:07:53.792Z,99123.13
2023-04-06T22:10:22.017Z,99127.44
2023-04-06T22:12:51.220Z,99121.69
2023-04-06T22:15:19.685Z,99113.13
2023-04-06T22:17:48.110Z,99110.38
2023-04-06T22:20:18.240Z,99126.09
2023-04-06T22:22:46.662Z,99116.03
2023-04-06T22:25:14.810Z,99116.03
2023-04-06T22:27:42.978Z,99118.31
2023-04-06T22:30:12.327Z,99109.25
2023-04-06T22:32:40.732Z,99113.69
2023-04-06T22:35:10.301Z,99109.44
2023-04-06T22:37:43.642Z,99109.56
2023-04-06T22:40:13.402Z,99108.63
2023-04-06T22:42:43.220Z,99114.53
2023-04-06T22:45:12.414Z,99114.06
2023-04-06T22:47:41.793Z,99109.50
2023-04-06T22:50:11.041Z,99102.31
2023-04-06T22:52:40.999Z,99101.47
2023-04-06T22:55:09.714Z,99103.72
2023-04-06T22:57:38.003Z,99107.56
2023-04-06T23:00:07.268Z,99104.00
2023-04-06T23:02:35.670Z,99101.72
2023-04-06T23:05:04.115Z,99094.97
2023-04-06T23:07:35.713Z,99096.50
2023-04-06T23:10:06.164Z,99093.72
2023-04-06T23:12:36.452Z,99097.81
2023-04-06T23:15:05.458Z,99085.06
2023-04-06T23:17:33.559Z,99082.03
2023-04-06T23:20:04.293Z,99083.00
2023-04-06T23:22:32.778Z,99075.84
2023-04-06T23:25:00.955Z,99075.03
2023-04-06T23:27:32.440Z,99071.56
2023-04-06T23:30:01.968Z,99074.19
2023-04-06T23:32:30.043Z,99071.56
2023-04-06T23:34:58.465Z,99080.00
2023-04-06T23:37:27.481Z,99071.41
2023-04-06T23:39:55.929Z,99070.03
2023-04-06T23:42:28.949Z,99070.03
2023-04-06T23:44:58.878Z,99062.88
2023-04-06T23:47:27.309Z,99058.44
2023-04-06T23:49:56.604Z,99056.47
2023-04-06T23:52:25.037Z,99059.31
2023-04-06T23:54:54.000Z,99061.97
2023-04-06T23:57:22.673Z,99057.63
2023-04-06T23:59:52.500Z,99055.06
